createdAt,value
2022-11-01T17:03:52.715Z,90.93
2022-11-01T17:06:22.622Z,90.40
2022-11-01T17:08:49.444Z,93.60
2022-11-01T17:11:16.215Z,103.30
2022-11-01T17:13:43.060Z,101.07
2022-11-01T17:16:25.312Z,98.43
2022-11-01T17:18:55.250Z,104.23
2022-11-01T17:21:23.288Z,84.43
2022-11-01T17:23:52.770Z,102.03
2022-11-01T17:26:19.919Z,174.73
2022-11-01T17:28:51.229Z,162.43
2022-11-01T17:31:19.172Z,195.13
2022-11-01T17:33:46.358Z,254.70
2022-11-01T17:36:15.855Z,247.23
2022-11-01T17:38:44.926Z,198.50
2022-11-01T17:41:17.046Z,157.57
2022-11-01T17:43:44.224Z,130.47
2022-11-01T17:46:20.192Z,102.17
2022-11-01T17:48:47.260Z,95.03
2022-11-01T17:51:14.086Z,78.03
2022-11-01T17:53:42.368Z,65.47
2022-11-01T17:56:09.481Z,60.17
2022-11-01T17:58:36.756Z,58.93
2022-11-01T18:01:04.990Z,66.43
2022-11-01T18:03:32.033Z,65.40
2022-11-01T18:06:02.123Z,61.00
2022-11-01T18:08:33.526Z,58.47
2022-11-01T18:11:38.355Z,56.63
2022-11-01T18:14:38.972Z,51.00
2022-11-01T18:17:18.987Z,51.17
2022-11-01T18:19:56.033Z,48.80
2022-11-01T18:22:39.324Z,47.70
2022-11-01T18:25:27.086Z,47.20
2022-11-01T18:27:58.759Z,42.87
2022-11-01T18:30:26.448Z,50.77
2022-11-01T18:33:09.780Z,49.90
2022-11-01T18:35:54.099Z,42.27
2022-11-01T18:38:28.815Z,48.87
2022-11-01T18:41:01.228Z,54.40
2022-11-01T18:43:34.660Z,52.60
2022-11-01T18:46:24.983Z,54.90
2022-11-01T18:49:00.449Z,53.27
2022-11-01T18:51:33.308Z,50.70
2022-11-01T18:54:09.342Z,47.07
2022-11-01T18:56:38.627Z,38.33
2022-11-01T18:59:21.531Z,50.57
2022-11-01T19:01:54.760Z,39.37
2022-11-01T19:04:27.712Z,40.10
2022-11-01T19:07:08.637Z,42.70
2022-11-01T19:09:41.094Z,37.53
2022-11-01T19:12:27.827Z,37.70
2022-11-01T19:15:25.917Z,33.97
2022-11-01T19:18:00.132Z,37.77
2022-11-01T19:20:31.283Z,37.53
2022-11-01T19:23:41.378Z,32.87
2022-11-01T19:26:21.177Z,33.67
2022-11-01T19:28:52.270Z,36.20
2022-11-01T19:31:29.648Z,34.10
2022-11-01T19:34:05.514Z,31.42
2022-11-01T19:36:44.338Z,32.20
2022-11-01T19:39:30.444Z,35.63
2022-11-01T19:42:06.669Z,33.77
2022-11-01T19:44:33.680Z,31.90
2022-11-01T19:47:36.012Z,32.40
2022-11-01T19:50:10.833Z,29.60
2022-11-01T19:52:40.095Z,32.17
2022-11-01T19:55:36.525Z,30.37
2022-11-01T19:58:24.936Z,28.45
2022-11-01T20:01:03.143Z,27.15
2022-11-01T20:03:43.893Z,24.13
2022-11-01T20:06:20.171Z,27.40
2022-11-01T20:08:50.025Z,22.70
2022-11-01T20:11:17.548Z,23.05
2022-11-01T20:13:44.336Z,21.17
2022-11-01T20:16:11.430Z,20.73
2022-11-01T20:18:38.237Z,23.30
2022-11-01T20:21:06.546Z,30.67
2022-11-01T20:23:34.098Z,24.98
2022-11-01T20:26:01.914Z,21.67
2022-11-01T20:28:28.717Z,18.40
2022-11-01T20:30:56.203Z,18.83
2022-11-01T20:33:24.698Z,18.37
2022-11-01T20:35:52.585Z,19.70
2022-11-01T20:40:51.563Z,19.40
2022-11-01T20:43:18.210Z,20.03
2022-11-01T20:45:45.212Z,21.45
2022-11-01T20:48:11.916Z,23.27
2022-11-01T20:50:38.691Z,17.63
2022-11-01T20:53:06.745Z,18.35
2022-11-01T20:55:34.017Z,22.08
2022-11-01T20:58:03.598Z,16.58
2022-11-01T21:00:31.822Z,19.27
2022-11-01T21:03:01.000Z,20.00
2022-11-01T21:05:29.766Z,17.67
2022-11-01T21:08:01.098Z,18.50
2022-11-01T21:10:40.192Z,21.48
2022-11-01T21:13:23.591Z,19.47
2022-11-01T21:15:51.772Z,21.70
2022-11-01T21:18:18.442Z,25.92
2022-11-01T21:20:47.129Z,26.85
2022-11-01T21:23:22.747Z,24.73
2022-11-01T21:26:54.892Z,22.67
2022-11-01T21:29:27.550Z,21.33
2022-11-01T21:31:54.327Z,26.65
2022-11-01T21:34:31.731Z,20.15
2022-11-01T21:36:59.395Z,21.13
2022-11-01T21:39:32.876Z,17.98
2022-11-01T21:42:27.954Z,20.03
2022-11-01T21:44:56.125Z,20.60
2022-11-01T21:47:31.245Z,16.77
2022-11-01T21:50:01.939Z,19.90
2022-11-01T21:52:28.648Z,20.60
2022-11-01T21:54:57.558Z,20.85
2022-11-01T21:57:24.311Z,22.63
2022-11-01T21:59:52.284Z,23.63
2022-11-01T22:02:20.002Z,25.50
2022-11-01T22:04:46.948Z,21.70
2022-11-01T22:07:13.822Z,16.95
2022-11-01T22:09:40.600Z,16.07
2022-11-01T22:12:07.880Z,15.50
2022-11-01T22:14:39.182Z,15.90
2022-11-01T22:17:05.956Z,17.93
2022-11-01T22:19:32.825Z,18.20
2022-11-01T22:22:00.388Z,17.50
2022-11-01T22:24:27.233Z,23.27
2022-11-01T22:26:53.992Z,19.13
2022-11-01T22:29:20.668Z,20.40
2022-11-01T22:31:50.199Z,18.10
2022-11-01T22:34:17.465Z,19.47
2022-11-01T22:36:44.593Z,17.77
2022-11-01T22:39:22.689Z,19.20
2022-11-01T22:41:49.436Z,17.93
2022-11-01T22:44:26.069Z,17.13
2022-11-01T22:46:58.759Z,19.57
2022-11-01T22:49:45.269Z,15.83
2022-11-01T22:52:47.756Z,18.23
2022-11-01T22:55:28.153Z,22.50
2022-11-01T22:58:00.422Z,18.87
2022-11-01T23:00:29.089Z,22.07
2022-11-01T23:03:21.757Z,18.50
2022-11-01T23:05:52.639Z,19.10
2022-11-01T23:08:29.944Z,18.43
2022-11-01T23:10:57.814Z,18.50
2022-11-01T23:13:44.794Z,18.43
2022-11-01T23:16:41.620Z,17.93
2022-11-01T23:19:11.187Z,17.03
2022-11-01T23:21:38.012Z,23.00
2022-11-01T23:24:07.648Z,18.10
2022-11-01T23:26:34.464Z,17.73
2022-11-01T23:29:02.319Z,19.80
2022-11-01T23:31:29.448Z,18.40
2022-11-01T23:33:56.315Z,14.67
2022-11-01T23:36:33.042Z,14.67
2022-11-01T23:39:13.800Z,16.03
2022-11-01T23:41:49.336Z,14.27
2022-11-01T23:44:39.357Z,17.43
2022-11-01T23:47:14.923Z,16.23
2022-11-01T23:49:42.442Z,12.57
2022-11-01T23:52:42.580Z,14.80
2022-11-01T23:55:18.113Z,15.10
2022-11-01T23:57:45.113Z,13.53
